sensor_id;sensor_type;location;lat;lon;timestamp;temperature;humidity
4755;DHT22;2391;47.212;7.542;2023-08-21T00:02:22;29.00;78.40
4755;DHT22;2391;47.212;7.542;2023-08-21T00:04:48;29.00;78.30
4755;DHT22;2391;47.212;7.542;2023-08-21T00:07:14;28.90;78.30
4755;DHT22;2391;47.212;7.542;2023-08-21T00:09:39;29.00;78.40
4755;DHT22;2391;47.212;7.542;2023-08-21T00:12:06;28.90;78.30
4755;DHT22;2391;47.212;7.542;2023-08-21T00:14:31;28.90;78.30
4755;DHT22;2391;47.212;7.542;2023-08-21T00:16:57;28.90;78.40
4755;DHT22;2391;47.212;7.542;2023-08-21T00:19:23;28.90;78.40
4755;DHT22;2391;47.212;7.542;2023-08-21T00:21:48;28.80;78.40
4755;DHT22;2391;47.212;7.542;2023-08-21T00:24:14;28.80;78.50
4755;DHT22;2391;47.212;7.542;2023-08-21T00:26:40;28.80;78.70
4755;DHT22;2391;47.212;7.542;2023-08-21T00:29:06;28.70;78.70
4755;DHT22;2391;47.212;7.542;2023-08-21T00:31:31;28.70;78.80
4755;DHT22;2391;47.212;7.542;2023-08-21T00:33:57;28.70;78.80
4755;DHT22;2391;47.212;7.542;2023-08-21T00:36:23;28.70;78.80
4755;DHT22;2391;47.212;7.542;2023-08-21T00:38:49;28.70;78.90
4755;DHT22;2391;47.212;7.542;2023-08-21T00:41:14;28.60;78.90
4755;DHT22;2391;47.212;7.542;2023-08-21T00:43:40;28.60;78.90
4755;DHT22;2391;47.212;7.542;2023-08-21T00:46:06;28.60;79.10
4755;DHT22;2391;47.212;7.542;2023-08-21T00:48:33;28.50;79.20
4755;DHT22;2391;47.212;7.542;2023-08-21T00:50:59;28.50;79.50
4755;DHT22;2391;47.212;7.542;2023-08-21T00:53:25;28.50;79.50
4755;DHT22;2391;47.212;7.542;2023-08-21T00:55:51;28.50;79.60
4755;DHT22;2391;47.212;7.542;2023-08-21T00:58:17;28.40;79.70
4755;DHT22;2391;47.212;7.542;2023-08-21T01:00:45;28.40;79.80
4755;DHT22;2391;47.212;7.542;2023-08-21T01:03:13;28.40;79.90
4755;DHT22;2391;47.212;7.542;2023-08-21T01:05:39;28.30;80.00
4755;DHT22;2391;47.212;7.542;2023-08-21T01:08:18;28.20;80.10
4755;DHT22;2391;47.212;7.542;2023-08-21T01:10:55;28.20;80.20
4755;DHT22;2391;47.212;7.542;2023-08-21T01:13:50;28.20;80.10
4755;DHT22;2391;47.212;7.542;2023-08-21T01:16:16;28.10;80.00
4755;DHT22;2391;47.212;7.542;2023-08-21T01:18:43;28.10;80.40
4755;DHT22;2391;47.212;7.542;2023-08-21T01:21:10;28.10;80.40
4755;DHT22;2391;47.212;7.542;2023-08-21T01:23:37;28.00;80.40
4755;DHT22;2391;47.212;7.542;2023-08-21T01:26:04;28.00;80.70
4755;DHT22;2391;47.212;7.542;2023-08-21T01:28:31;27.90;80.70
4755;DHT22;2391;47.212;7.542;2023-08-21T01:31:15;27.90;80.90
4755;DHT22;2391;47.212;7.542;2023-08-21T01:33:44;27.90;80.90
4755;DHT22;2391;47.212;7.542;2023-08-21T01:36:11;27.90;81.10
4755;DHT22;2391;47.212;7.542;2023-08-21T01:38:38;27.90;81.10
4755;DHT22;2391;47.212;7.542;2023-08-21T01:41:03;27.90;81.10
4755;DHT22;2391;47.212;7.542;2023-08-21T01:43:29;27.90;81.10
4755;DHT22;2391;47.212;7.542;2023-08-21T01:45:55;27.90;81.10
4755;DHT22;2391;47.212;7.542;2023-08-21T01:48:21;27.80;81.00
4755;DHT22;2391;47.212;7.542;2023-08-21T01:50:47;27.90;81.10
4755;DHT22;2391;47.212;7.542;2023-08-21T01:53:13;27.80;81.00
4755;DHT22;2391;47.212;7.542;2023-08-21T01:55:38;27.80;81.00
4755;DHT22;2391;47.212;7.542;2023-08-21T01:58:04;27.80;81.00
4755;DHT22;2391;47.212;7.542;2023-08-21T02:00:30;27.80;81.30
4755;DHT22;2391;47.212;7.542;2023-08-21T02:02:55;27.80;81.30
4755;DHT22;2391;47.212;7.542;2023-08-21T02:05:21;27.80;81.30
4755;DHT22;2391;47.212;7.542;2023-08-21T02:07:47;27.80;81.30
4755;DHT22;2391;47.212;7.542;2023-08-21T02:10:13;27.80;81.40
4755;DHT22;2391;47.212;7.542;2023-08-21T02:12:39;27.70;81.30
4755;DHT22;2391;47.212;7.542;2023-08-21T02:15:06;27.70;81.50
4755;DHT22;2391;47.212;7.542;2023-08-21T02:17:31;27.70;81.90
4755;DHT22;2391;47.212;7.542;2023-08-21T02:19:57;27.60;81.90
4755;DHT22;2391;47.212;7.542;2023-08-21T02:22:23;27.60;82.00
4755;DHT22;2391;47.212;7.542;2023-08-21T02:24:49;27.60;82.00
4755;DHT22;2391;47.212;7.542;2023-08-21T02:27:15;27.60;82.00
4755;DHT22;2391;47.212;7.542;2023-08-21T02:29:40;27.60;82.10
4755;DHT22;2391;47.212;7.542;2023-08-21T02:32:06;27.60;82.60
4755;DHT22;2391;47.212;7.542;2023-08-21T02:34:32;27.60;82.10
4755;DHT22;2391;47.212;7.542;2023-08-21T02:36:58;27.50;82.00
4755;DHT22;2391;47.212;7.542;2023-08-21T02:39:24;27.50;82.10
4755;DHT22;2391;47.212;7.542;2023-08-21T02:41:49;27.50;82.00
4755;DHT22;2391;47.212;7.542;2023-08-21T02:44:15;27.50;81.90
4755;DHT22;2391;47.212;7.542;2023-08-21T02:46:41;27.50;81.90
4755;DHT22;2391;47.212;7.542;2023-08-21T02:49:07;27.40;81.80
4755;DHT22;2391;47.212;7.542;2023-08-21T02:51:32;27.30;82.00
4755;DHT22;2391;47.212;7.542;2023-08-21T02:53:58;27.30;82.10
4755;DHT22;2391;47.212;7.542;2023-08-21T02:56:24;27.30;82.20
4755;DHT22;2391;47.212;7.542;2023-08-21T02:58:49;27.20;82.20
4755;DHT22;2391;47.212;7.542;2023-08-21T03:01:15;27.20;82.20
4755;DHT22;2391;47.212;7.542;2023-08-21T03:03:42;27.20;82.30
4755;DHT22;2391;47.212;7.542;2023-08-21T03:06:08;27.20;82.30
4755;DHT22;2391;47.212;7.542;2023-08-21T03:08:34;27.20;82.30
4755;DHT22;2391;47.212;7.542;2023-08-21T03:10:59;27.20;82.40
4755;DHT22;2391;47.212;7.542;2023-08-21T03:13:25;27.10;82.40
4755;DHT22;2391;47.212;7.542;2023-08-21T03:15:51;27.10;82.40
4755;DHT22;2391;47.212;7.542;2023-08-21T03:18:16;27.10;82.70
4755;DHT22;2391;47.212;7.542;2023-08-21T03:20:46;27.00;82.70
4755;DHT22;2391;47.212;7.542;2023-08-21T03:23:12;27.10;82.80
4755;DHT22;2391;47.212;7.542;2023-08-21T03:25:38;27.10;82.80
4755;DHT22;2391;47.212;7.542;2023-08-21T03:28:04;27.00;82.60
4755;DHT22;2391;47.212;7.542;2023-08-21T03:30:30;27.00;82.60
4755;DHT22;2391;47.212;7.542;2023-08-21T03:32:56;26.90;83.40
4755;DHT22;2391;47.212;7.542;2023-08-21T03:35:21;26.90;82.80
4755;DHT22;2391;47.212;7.542;2023-08-21T03:37:47;26.90;82.90
4755;DHT22;2391;47.212;7.542;2023-08-21T03:40:16;26.90;83.00
4755;DHT22;2391;47.212;7.542;2023-08-21T03:42:42;26.80;83.00
4755;DHT22;2391;47.212;7.542;2023-08-21T03:45:09;26.80;83.00
4755;DHT22;2391;47.212;7.542;2023-08-21T03:47:34;26.80;83.50
4755;DHT22;2391;47.212;7.542;2023-08-21T03:50:00;26.80;82.90
4755;DHT22;2391;47.212;7.542;2023-08-21T03:52:26;26.80;83.00
4755;DHT22;2391;47.212;7.542;2023-08-21T03:54:52;26.80;83.00
4755;DHT22;2391;47.212;7.542;2023-08-21T03:57:17;26.80;83.00
4755;DHT22;2391;47.212;7.542;2023-08-21T03:59:43;26.70;83.10
4755;DHT22;2391;47.212;7.542;2023-08-21T04:02:09;26.70;83.60
4755;DHT22;2391;47.212;7.542;2023-08-21T04:04:35;26.70;83.20
4755;DHT22;2391;47.212;7.542;2023-08-21T04:07:01;26.60;83.20
4755;DHT22;2391;47.212;7.542;2023-08-21T04:09:26;26.60;83.50
4755;DHT22;2391;47.212;7.542;2023-08-21T04:11:52;26.60;83.50
4755;DHT22;2391;47.212;7.542;2023-08-21T04:14:18;26.50;83.50
4755;DHT22;2391;47.212;7.542;2023-08-21T04:16:44;26.50;83.90
4755;DHT22;2391;47.212;7.542;2023-08-21T04:19:09;26.40;83.80
4755;DHT22;2391;47.212;7.542;2023-08-21T04:21:35;26.40;84.00
4755;DHT22;2391;47.212;7.542;2023-08-21T04:24:01;26.40;84.00
4755;DHT22;2391;47.212;7.542;2023-08-21T04:26:26;26.40;84.00
4755;DHT22;2391;47.212;7.542;2023-08-21T04:28:52;26.40;84.00
4755;DHT22;2391;47.212;7.542;2023-08-21T04:31:18;26.40;84.10
4755;DHT22;2391;47.212;7.542;2023-08-21T04:33:44;26.30;84.10
4755;DHT22;2391;47.212;7.542;2023-08-21T04:36:15;26.30;84.00
4755;DHT22;2391;47.212;7.542;2023-08-21T04:38:41;26.30;84.00
4755;DHT22;2391;47.212;7.542;2023-08-21T04:41:08;26.30;84.10
4755;DHT22;2391;47.212;7.542;2023-08-21T04:43:34;26.20;84.10
4755;DHT22;2391;47.212;7.542;2023-08-21T04:46:00;26.20;84.20
4755;DHT22;2391;47.212;7.542;2023-08-21T04:48:26;26.20;84.20
4755;DHT22;2391;47.212;7.542;2023-08-21T04:50:52;26.20;84.30
4755;DHT22;2391;47.212;7.542;2023-08-21T04:53:18;26.20;84.30
4755;DHT22;2391;47.212;7.542;2023-08-21T04:55:44;26.20;84.30
4755;DHT22;2391;47.212;7.542;2023-08-21T04:58:10;26.20;84.40
4755;DHT22;2391;47.212;7.542;2023-08-21T05:00:36;26.10;84.60
4755;DHT22;2391;47.212;7.542;2023-08-21T05:03:02;26.00;84.80
4755;DHT22;2391;47.212;7.542;2023-08-21T05:05:28;26.00;86.00
4755;DHT22;2391;47.212;7.542;2023-08-21T05:07:54;25.90;85.50
4755;DHT22;2391;47.212;7.542;2023-08-21T05:10:20;25.90;85.90
4755;DHT22;2391;47.212;7.542;2023-08-21T05:12:46;25.90;85.90
4755;DHT22;2391;47.212;7.542;2023-08-21T05:15:11;25.90;85.80
4755;DHT22;2391;47.212;7.542;2023-08-21T05:17:37;26.00;85.90
4755;DHT22;2391;47.212;7.542;2023-08-21T05:20:04;25.90;85.80
4755;DHT22;2391;47.212;7.542;2023-08-21T05:22:30;25.90;86.40
4755;DHT22;2391;47.212;7.542;2023-08-21T05:24:55;25.90;86.70
4755;DHT22;2391;47.212;7.542;2023-08-21T05:27:21;25.90;86.90
4755;DHT22;2391;47.212;7.542;2023-08-21T05:29:47;25.80;87.20
4755;DHT22;2391;47.212;7.542;2023-08-21T05:32:14;25.80;87.30
4755;DHT22;2391;47.212;7.542;2023-08-21T05:34:40;25.80;87.10
4755;DHT22;2391;47.212;7.542;2023-08-21T05:37:06;25.90;87.60
4755;DHT22;2391;47.212;7.542;2023-08-21T05:39:32;25.90;87.80
4755;DHT22;2391;47.212;7.542;2023-08-21T05:41:59;25.90;87.60
4755;DHT22;2391;47.212;7.542;2023-08-21T05:44:25;25.90;87.70
4755;DHT22;2391;47.212;7.542;2023-08-21T05:46:50;26.00;87.80
4755;DHT22;2391;47.212;7.542;2023-08-21T05:49:16;26.00;87.60
4755;DHT22;2391;47.212;7.542;2023-08-21T05:51:42;26.10;87.50
4755;DHT22;2391;47.212;7.542;2023-08-21T05:54:08;26.20;87.40
4755;DHT22;2391;47.212;7.542;2023-08-21T05:56:33;26.40;87.10
4755;DHT22;2391;47.212;7.542;2023-08-21T05:58:59;26.50;86.60
4755;DHT22;2391;47.212;7.542;2023-08-21T06:01:25;26.60;86.10
4755;DHT22;2391;47.212;7.542;2023-08-21T06:03:50;26.70;85.80
4755;DHT22;2391;47.212;7.542;2023-08-21T06:06:16;26.90;85.40
4755;DHT22;2391;47.212;7.542;2023-08-21T06:08:42;27.00;85.10
4755;DHT22;2391;47.212;7.542;2023-08-21T06:11:08;27.10;84.60
4755;DHT22;2391;47.212;7.542;2023-08-21T06:13:34;27.10;84.30
4755;DHT22;2391;47.212;7.542;2023-08-21T06:16:00;27.20;84.00
4755;DHT22;2391;47.212;7.542;2023-08-21T06:18:25;27.30;83.90
4755;DHT22;2391;47.212;7.542;2023-08-21T06:20:51;27.50;83.30
4755;DHT22;2391;47.212;7.542;2023-08-21T06:23:21;27.60;83.00
4755;DHT22;2391;47.212;7.542;2023-08-21T06:25:50;27.80;82.50
4755;DHT22;2391;47.212;7.542;2023-08-21T06:28:16;27.90;82.00
4755;DHT22;2391;47.212;7.542;2023-08-21T06:30:42;28.00;81.80
4755;DHT22;2391;47.212;7.542;2023-08-21T06:33:08;28.20;81.10
4755;DHT22;2391;47.212;7.542;2023-08-21T06:35:36;28.30;81.40
4755;DHT22;2391;47.212;7.542;2023-08-21T06:38:02;28.40;80.60
4755;DHT22;2391;47.212;7.542;2023-08-21T06:40:27;28.50;80.50
4755;DHT22;2391;47.212;7.542;2023-08-21T06:42:53;28.60;80.20
4755;DHT22;2391;47.212;7.542;2023-08-21T06:45:19;28.70;79.80
4755;DHT22;2391;47.212;7.542;2023-08-21T06:47:45;28.90;79.20
4755;DHT22;2391;47.212;7.542;2023-08-21T06:50:11;29.00;78.80
4755;DHT22;2391;47.212;7.542;2023-08-21T06:52:37;29.10;78.50
4755;DHT22;2391;47.212;7.542;2023-08-21T06:55:03;29.20;78.50
4755;DHT22;2391;47.212;7.542;2023-08-21T06:57:28;29.30;77.60
4755;DHT22;2391;47.212;7.542;2023-08-21T06:59:54;29.30;77.70
4755;DHT22;2391;47.212;7.542;2023-08-21T07:02:20;29.40;77.10
4755;DHT22;2391;47.212;7.542;2023-08-21T07:04:46;29.50;76.70
4755;DHT22;2391;47.212;7.542;2023-08-21T07:07:11;29.70;76.50
4755;DHT22;2391;47.212;7.542;2023-08-21T07:09:37;29.80;76.60
4755;DHT22;2391;47.212;7.542;2023-08-21T07:12:04;29.90;76.80
4755;DHT22;2391;47.212;7.542;2023-08-21T07:14:30;30.00;75.60
4755;DHT22;2391;47.212;7.542;2023-08-21T07:16:56;30.00;75.10
4755;DHT22;2391;47.212;7.542;2023-08-21T07:19:22;29.90;75.40
4755;DHT22;2391;47.212;7.542;2023-08-21T07:21:48;30.00;76.40
4755;DHT22;2391;47.212;7.542;2023-08-21T07:24:13;30.10;75.90
4755;DHT22;2391;47.212;7.542;2023-08-21T07:26:39;30.20;75.20
4755;DHT22;2391;47.212;7.542;2023-08-21T07:29:05;30.10;75.10
4755;DHT22;2391;47.212;7.542;2023-08-21T07:31:33;30.10;76.10
4755;DHT22;2391;47.212;7.542;2023-08-21T07:33:59;30.20;75.70
4755;DHT22;2391;47.212;7.542;2023-08-21T07:36:25;30.30;75.00
4755;DHT22;2391;47.212;7.542;2023-08-21T07:38:51;30.40;74.60
4755;DHT22;2391;47.212;7.542;2023-08-21T07:41:17;30.50;74.80
4755;DHT22;2391;47.212;7.542;2023-08-21T07:43:44;30.70;73.80
4755;DHT22;2391;47.212;7.542;2023-08-21T07:46:11;30.70;73.80
4755;DHT22;2391;47.212;7.542;2023-08-21T07:48:44;30.70;74.10
4755;DHT22;2391;47.212;7.542;2023-08-21T07:51:11;30.70;73.60
4755;DHT22;2391;47.212;7.542;2023-08-21T07:53:37;30.70;73.50
4755;DHT22;2391;47.212;7.542;2023-08-21T07:56:04;30.70;73.90
4755;DHT22;2391;47.212;7.542;2023-08-21T07:58:30;30.70;73.30
4755;DHT22;2391;47.212;7.542;2023-08-21T08:00:57;30.80;74.10
4755;DHT22;2391;47.212;7.542;2023-08-21T08:03:23;31.00;73.60
4755;DHT22;2391;47.212;7.542;2023-08-21T08:05:49;31.20;73.10
4755;DHT22;2391;47.212;7.542;2023-08-21T08:08:17;31.30;72.30
4755;DHT22;2391;47.212;7.542;2023-08-21T08:10:43;31.40;72.70
4755;DHT22;2391;47.212;7.542;2023-08-21T08:13:09;31.50;72.90
4755;DHT22;2391;47.212;7.542;2023-08-21T08:15:35;31.60;72.80
4755;DHT22;2391;47.212;7.542;2023-08-21T08:18:05;31.80;72.00
4755;DHT22;2391;47.212;7.542;2023-08-21T08:20:32;31.90;71.60
4755;DHT22;2391;47.212;7.542;2023-08-21T08:22:58;32.00;71.20
4755;DHT22;2391;47.212;7.542;2023-08-21T08:25:24;32.10;70.80
4755;DHT22;2391;47.212;7.542;2023-08-21T08:27:51;32.10;70.80
4755;DHT22;2391;47.212;7.542;2023-08-21T08:30:17;32.20;70.60
4755;DHT22;2391;47.212;7.542;2023-08-21T08:32:43;32.10;69.90
4755;DHT22;2391;47.212;7.542;2023-08-21T08:35:13;32.00;70.60
4755;DHT22;2391;47.212;7.542;2023-08-21T08:37:41;31.90;71.40
4755;DHT22;2391;47.212;7.542;2023-08-21T08:40:08;31.90;70.70
4755;DHT22;2391;47.212;7.542;2023-08-21T08:42:35;31.90;70.00
4755;DHT22;2391;47.212;7.542;2023-08-21T08:45:03;31.80;70.30
4755;DHT22;2391;47.212;7.542;2023-08-21T08:47:33;31.70;71.20
4755;DHT22;2391;47.212;7.542;2023-08-21T08:50:04;31.60;71.20
4755;DHT22;2391;47.212;7.542;2023-08-21T08:52:39;31.60;71.00
4755;DHT22;2391;47.212;7.542;2023-08-21T08:55:04;31.50;71.20
4755;DHT22;2391;47.212;7.542;2023-08-21T08:57:33;31.70;71.20
4755;DHT22;2391;47.212;7.542;2023-08-21T09:00:00;31.70;70.80
4755;DHT22;2391;47.212;7.542;2023-08-21T09:02:26;31.80;71.10
4755;DHT22;2391;47.212;7.542;2023-08-21T09:04:52;31.90;70.50
4755;DHT22;2391;47.212;7.542;2023-08-21T09:07:18;31.90;69.80
4755;DHT22;2391;47.212;7.542;2023-08-21T09:09:47;31.80;69.90
4755;DHT22;2391;47.212;7.542;2023-08-21T09:12:15;31.80;70.50
4755;DHT22;2391;47.212;7.542;2023-08-21T09:14:43;31.70;69.80
4755;DHT22;2391;47.212;7.542;2023-08-21T09:17:09;31.70;69.90
4755;DHT22;2391;47.212;7.542;2023-08-21T09:19:35;31.80;70.50
4755;DHT22;2391;47.212;7.542;2023-08-21T09:22:13;31.80;70.40
4755;DHT22;2391;47.212;7.542;2023-08-21T09:24:37;31.90;70.40
4755;DHT22;2391;47.212;7.542;2023-08-21T09:27:03;32.10;70.70
4755;DHT22;2391;47.212;7.542;2023-08-21T09:29:38;32.10;69.70
4755;DHT22;2391;47.212;7.542;2023-08-21T09:32:07;32.10;69.40
4755;DHT22;2391;47.212;7.542;2023-08-21T09:34:37;32.20;69.10
4755;DHT22;2391;47.212;7.542;2023-08-21T09:37:07;32.20;69.20
4755;DHT22;2391;47.212;7.542;2023-08-21T09:39:35;32.10;69.10
4755;DHT22;2391;47.212;7.542;2023-08-21T09:44:40;32.20;69.60
4755;DHT22;2391;47.212;7.542;2023-08-21T09:47:04;32.40;69.60
4755;DHT22;2391;47.212;7.542;2023-08-21T09:49:30;32.50;69.60
4755;DHT22;2391;47.212;7.542;2023-08-21T09:51:58;32.60;69.80
4755;DHT22;2391;47.212;7.542;2023-08-21T09:54:24;32.50;69.30
4755;DHT22;2391;47.212;7.542;2023-08-21T09:56:51;32.50;69.40
4755;DHT22;2391;47.212;7.542;2023-08-21T09:59:17;32.50;69.40
4755;DHT22;2391;47.212;7.542;2023-08-21T10:01:45;32.50;69.60
4755;DHT22;2391;47.212;7.542;2023-08-21T10:04:13;32.60;69.20
4755;DHT22;2391;47.212;7.542;2023-08-21T10:06:39;32.70;68.70
4755;DHT22;2391;47.212;7.542;2023-08-21T10:09:05;32.70;69.40
4755;DHT22;2391;47.212;7.542;2023-08-21T10:11:33;32.80;69.10
4755;DHT22;2391;47.212;7.542;2023-08-21T10:13:59;32.90;68.80
4755;DHT22;2391;47.212;7.542;2023-08-21T10:16:26;32.90;69.40
4755;DHT22;2391;47.212;7.542;2023-08-21T10:18:53;32.90;69.50
4755;DHT22;2391;47.212;7.542;2023-08-21T10:21:20;32.90;68.90
4755;DHT22;2391;47.212;7.542;2023-08-21T10:23:48;32.90;68.90
4755;DHT22;2391;47.212;7.542;2023-08-21T10:26:15;32.80;69.80
4755;DHT22;2391;47.212;7.542;2023-08-21T10:28:56;32.80;70.20
4755;DHT22;2391;47.212;7.542;2023-08-21T10:31:36;32.80;69.50
4755;DHT22;2391;47.212;7.542;2023-08-21T10:34:10;32.90;69.70
4755;DHT22;2391;47.212;7.542;2023-08-21T10:39:21;32.90;70.10
4755;DHT22;2391;47.212;7.542;2023-08-21T10:42:08;33.00;69.30
4755;DHT22;2391;47.212;7.542;2023-08-21T10:44:55;33.00;69.10
4755;DHT22;2391;47.212;7.542;2023-08-21T10:49:58;33.00;69.90
4755;DHT22;2391;47.212;7.542;2023-08-21T10:52:26;33.00;69.00
4755;DHT22;2391;47.212;7.542;2023-08-21T10:54:54;32.90;69.20
4755;DHT22;2391;47.212;7.542;2023-08-21T10:57:27;32.90;68.80
4755;DHT22;2391;47.212;7.542;2023-08-21T11:02:18;32.90;69.50
4755;DHT22;2391;47.212;7.542;2023-08-21T11:04:44;32.90;70.50
4755;DHT22;2391;47.212;7.542;2023-08-21T11:07:11;32.80;69.30
4755;DHT22;2391;47.212;7.542;2023-08-21T11:09:37;32.80;70.10
4755;DHT22;2391;47.212;7.542;2023-08-21T11:12:12;32.80;70.60
4755;DHT22;2391;47.212;7.542;2023-08-21T11:14:39;32.90;70.50
4755;DHT22;2391;47.212;7.542;2023-08-21T11:17:05;32.90;70.30
4755;DHT22;2391;47.212;7.542;2023-08-21T11:19:32;32.90;69.90
4755;DHT22;2391;47.212;7.542;2023-08-21T11:21:59;32.90;69.50
4755;DHT22;2391;47.212;7.542;2023-08-21T11:24:30;33.00;69.40
4755;DHT22;2391;47.212;7.542;2023-08-21T11:26:56;33.10;69.50
4755;DHT22;2391;47.212;7.542;2023-08-21T11:29:21;33.10;69.80
4755;DHT22;2391;47.212;7.542;2023-08-21T11:31:48;33.10;69.80
4755;DHT22;2391;47.212;7.542;2023-08-21T11:34:19;33.20;70.10
4755;DHT22;2391;47.212;7.542;2023-08-21T11:36:45;33.20;70.10
4755;DHT22;2391;47.212;7.542;2023-08-21T11:39:11;33.20;70.00
4755;DHT22;2391;47.212;7.542;2023-08-21T11:41:56;33.30;70.10
4755;DHT22;2391;47.212;7.542;2023-08-21T11:44:22;33.30;69.60
4755;DHT22;2391;47.212;7.542;2023-08-21T11:46:52;33.40;69.20
4755;DHT22;2391;47.212;7.542;2023-08-21T11:49:19;33.40;69.90
4755;DHT22;2391;47.212;7.542;2023-08-21T11:51:46;33.40;69.10
4755;DHT22;2391;47.212;7.542;2023-08-21T11:54:11;33.40;68.80
4755;DHT22;2391;47.212;7.542;2023-08-21T11:56:39;33.50;69.70
4755;DHT22;2391;47.212;7.542;2023-08-21T11:59:07;33.60;69.90
4755;DHT22;2391;47.212;7.542;2023-08-21T12:01:33;33.50;68.00
4755;DHT22;2391;47.212;7.542;2023-08-21T12:03:59;33.50;68.70
4755;DHT22;2391;47.212;7.542;2023-08-21T12:06:25;33.60;68.60
4755;DHT22;2391;47.212;7.542;2023-08-21T12:08:51;33.60;68.30
4755;DHT22;2391;47.212;7.542;2023-08-21T12:11:17;33.70;66.20
4755;DHT22;2391;47.212;7.542;2023-08-21T12:13:43;33.70;65.30
4755;DHT22;2391;47.212;7.542;2023-08-21T12:16:09;33.80;66.00
4755;DHT22;2391;47.212;7.542;2023-08-21T12:18:35;33.80;65.70
4755;DHT22;2391;47.212;7.542;2023-08-21T12:21:00;33.90;66.00
4755;DHT22;2391;47.212;7.542;2023-08-21T12:23:26;33.90;65.50
4755;DHT22;2391;47.212;7.542;2023-08-21T12:25:52;33.90;65.70
4755;DHT22;2391;47.212;7.542;2023-08-21T12:28:18;33.90;64.90
4755;DHT22;2391;47.212;7.542;2023-08-21T12:30:43;33.80;64.00
4755;DHT22;2391;47.212;7.542;2023-08-21T12:33:09;33.80;64.40
4755;DHT22;2391;47.212;7.542;2023-08-21T12:35:36;33.90;65.10
4755;DHT22;2391;47.212;7.542;2023-08-21T12:38:09;33.90;64.10
4755;DHT22;2391;47.212;7.542;2023-08-21T12:40:31;33.90;63.70
4755;DHT22;2391;47.212;7.542;2023-08-21T12:42:57;34.00;62.30
4755;DHT22;2391;47.212;7.542;2023-08-21T12:45:23;34.10;63.10
4755;DHT22;2391;47.212;7.542;2023-08-21T12:47:49;34.10;62.90
4755;DHT22;2391;47.212;7.542;2023-08-21T12:50:15;34.30;61.80
4755;DHT22;2391;47.212;7.542;2023-08-21T12:52:40;34.30;61.40
4755;DHT22;2391;47.212;7.542;2023-08-21T12:55:07;34.30;59.70
4755;DHT22;2391;47.212;7.542;2023-08-21T12:57:33;34.30;59.40
4755;DHT22;2391;47.212;7.542;2023-08-21T12:59:58;34.50;58.80
4755;DHT22;2391;47.212;7.542;2023-08-21T13:02:24;34.60;59.10
4755;DHT22;2391;47.212;7.542;2023-08-21T13:04:52;34.70;58.90
4755;DHT22;2391;47.212;7.542;2023-08-21T13:07:17;34.90;57.90
4755;DHT22;2391;47.212;7.542;2023-08-21T13:09:43;35.00;57.60
4755;DHT22;2391;47.212;7.542;2023-08-21T13:12:09;35.10;56.10
4755;DHT22;2391;47.212;7.542;2023-08-21T13:14:35;35.10;56.10
4755;DHT22;2391;47.212;7.542;2023-08-21T13:17:01;35.10;56.40
4755;DHT22;2391;47.212;7.542;2023-08-21T13:19:27;35.10;56.70
4755;DHT22;2391;47.212;7.542;2023-08-21T13:21:52;35.10;56.20
4755;DHT22;2391;47.212;7.542;2023-08-21T13:24:20;35.20;55.70
4755;DHT22;2391;47.212;7.542;2023-08-21T13:26:47;35.20;55.90
4755;DHT22;2391;47.212;7.542;2023-08-21T13:29:12;35.30;55.10
4755;DHT22;2391;47.212;7.542;2023-08-21T13:31:38;35.30;54.20
4755;DHT22;2391;47.212;7.542;2023-08-21T13:34:04;35.40;55.10
4755;DHT22;2391;47.212;7.542;2023-08-21T13:36:29;35.30;54.90
4755;DHT22;2391;47.212;7.542;2023-08-21T13:38:55;35.30;55.10
4755;DHT22;2391;47.212;7.542;2023-08-21T13:41:21;35.30;54.80
4755;DHT22;2391;47.212;7.542;2023-08-21T13:43:47;35.30;55.00
4755;DHT22;2391;47.212;7.542;2023-08-21T13:46:12;35.40;55.60
4755;DHT22;2391;47.212;7.542;2023-08-21T13:48:38;35.40;55.40
4755;DHT22;2391;47.212;7.542;2023-08-21T13:51:04;35.40;55.00
4755;DHT22;2391;47.212;7.542;2023-08-21T13:53:29;35.50;54.80
4755;DHT22;2391;47.212;7.542;2023-08-21T13:55:55;35.50;55.20
4755;DHT22;2391;47.212;7.542;2023-08-21T13:58:21;35.50;55.60
4755;DHT22;2391;47.212;7.542;2023-08-21T14:00:46;35.60;55.80
4755;DHT22;2391;47.212;7.542;2023-08-21T14:03:12;35.70;56.00
4755;DHT22;2391;47.212;7.542;2023-08-21T14:05:38;35.70;55.00
4755;DHT22;2391;47.212;7.542;2023-08-21T14:08:04;35.80;54.90
4755;DHT22;2391;47.212;7.542;2023-08-21T14:10:30;35.80;54.50
4755;DHT22;2391;47.212;7.542;2023-08-21T14:12:56;35.90;54.50
4755;DHT22;2391;47.212;7.542;2023-08-21T14:15:23;35.90;54.60
4755;DHT22;2391;47.212;7.542;2023-08-21T14:17:49;35.90;54.20
4755;DHT22;2391;47.212;7.542;2023-08-21T14:20:15;35.90;54.60
4755;DHT22;2391;47.212;7.542;2023-08-21T14:22:41;36.00;53.40
4755;DHT22;2391;47.212;7.542;2023-08-21T14:25:07;36.00;52.90
4755;DHT22;2391;47.212;7.542;2023-08-21T14:27:33;36.00;53.20
4755;DHT22;2391;47.212;7.542;2023-08-21T14:29:59;36.00;53.30
4755;DHT22;2391;47.212;7.542;2023-08-21T14:32:25;36.00;53.00
4755;DHT22;2391;47.212;7.542;2023-08-21T14:34:52;35.80;54.10
4755;DHT22;2391;47.212;7.542;2023-08-21T14:37:20;35.90;54.80
4755;DHT22;2391;47.212;7.542;2023-08-21T14:39:46;35.90;55.10
4755;DHT22;2391;47.212;7.542;2023-08-21T14:42:13;35.90;55.00
4755;DHT22;2391;47.212;7.542;2023-08-21T14:44:39;35.90;54.70
4755;DHT22;2391;47.212;7.542;2023-08-21T14:47:05;35.90;55.30
4755;DHT22;2391;47.212;7.542;2023-08-21T14:49:31;36.00;55.10
4755;DHT22;2391;47.212;7.542;2023-08-21T14:51:58;36.00;55.60
4755;DHT22;2391;47.212;7.542;2023-08-21T14:54:24;36.00;54.70
4755;DHT22;2391;47.212;7.542;2023-08-21T14:56:50;36.00;53.90
4755;DHT22;2391;47.212;7.542;2023-08-21T14:59:16;36.10;53.80
4755;DHT22;2391;47.212;7.542;2023-08-21T15:01:43;36.10;53.40
4755;DHT22;2391;47.212;7.542;2023-08-21T15:04:09;36.10;52.90
4755;DHT22;2391;47.212;7.542;2023-08-21T15:06:36;36.10;53.40
4755;DHT22;2391;47.212;7.542;2023-08-21T15:09:02;36.10;52.90
4755;DHT22;2391;47.212;7.542;2023-08-21T15:11:28;36.10;53.00
4755;DHT22;2391;47.212;7.542;2023-08-21T15:13:55;36.10;52.60
4755;DHT22;2391;47.212;7.542;2023-08-21T15:16:20;36.00;52.90
4755;DHT22;2391;47.212;7.542;2023-08-21T15:18:47;36.00;54.10
4755;DHT22;2391;47.212;7.542;2023-08-21T15:21:14;36.00;55.70
4755;DHT22;2391;47.212;7.542;2023-08-21T15:23:40;36.00;57.10
4755;DHT22;2391;47.212;7.542;2023-08-21T15:26:05;36.00;57.20
4755;DHT22;2391;47.212;7.542;2023-08-21T15:28:31;36.00;57.20
4755;DHT22;2391;47.212;7.542;2023-08-21T15:30:57;36.00;56.80
4755;DHT22;2391;47.212;7.542;2023-08-21T15:33:23;36.00;56.20
4755;DHT22;2391;47.212;7.542;2023-08-21T15:35:48;36.00;56.90
4755;DHT22;2391;47.212;7.542;2023-08-21T15:38:14;35.90;56.50
4755;DHT22;2391;47.212;7.542;2023-08-21T15:40:40;35.90;57.10
4755;DHT22;2391;47.212;7.542;2023-08-21T15:43:07;35.70;57.50
4755;DHT22;2391;47.212;7.542;2023-08-21T15:45:33;35.70;58.60
4755;DHT22;2391;47.212;7.542;2023-08-21T15:47:59;35.60;58.90
4755;DHT22;2391;47.212;7.542;2023-08-21T15:50:24;35.60;59.70
4755;DHT22;2391;47.212;7.542;2023-08-21T15:52:51;35.60;60.20
4755;DHT22;2391;47.212;7.542;2023-08-21T15:55:16;35.60;60.80
4755;DHT22;2391;47.212;7.542;2023-08-21T15:57:42;35.60;61.00
4755;DHT22;2391;47.212;7.542;2023-08-21T16:00:11;35.60;60.80
4755;DHT22;2391;47.212;7.542;2023-08-21T16:02:37;35.70;60.80
4755;DHT22;2391;47.212;7.542;2023-08-21T16:05:03;35.70;60.60
4755;DHT22;2391;47.212;7.542;2023-08-21T16:07:31;35.70;60.80
4755;DHT22;2391;47.212;7.542;2023-08-21T16:09:57;35.70;60.60